sensor_id;sensor_type;location;lat;lon;timestamp;temperature;humidity
21712;DHT22;11017;53.552;9.910;2022-12-29T00:00:19;8.90;99.90
21712;DHT22;11017;53.552;9.910;2022-12-29T00:02:47;9.00;99.90
21712;DHT22;11017;53.552;9.910;2022-12-29T00:05:14;9.00;99.90
21712;DHT22;11017;53.552;9.910;2022-12-29T00:07:41;9.10;99.90
21712;DHT22;11017;53.552;9.910;2022-12-29T00:10:08;9.10;99.90
21712;DHT22;11017;53.552;9.910;2022-12-29T00:12:35;9.10;99.90
21712;DHT22;11017;53.552;9.910;2022-12-29T00:15:19;9.20;99.90
21712;DHT22;11017;53.552;9.910;2022-12-29T00:18:06;9.20;99.90
21712;DHT22;11017;53.552;9.910;2022-12-29T00:20:34;9.20;99.90
21712;DHT22;11017;53.552;9.910;2022-12-29T00:23:19;9.20;99.90
21712;DHT22;11017;53.552;9.910;2022-12-29T00:26:05;9.20;99.90
21712;DHT22;11017;53.552;9.910;2022-12-29T00:28:58;9.20;99.90
21712;DHT22;11017;53.552;9.910;2022-12-29T00:31:42;9.20;99.90
21712;DHT22;11017;53.552;9.910;2022-12-29T00:34:28;9.20;99.90
21712;DHT22;11017;53.552;9.910;2022-12-29T00:37:12;9.30;99.90
21712;DHT22;11017;53.552;9.910;2022-12-29T00:39:39;9.30;99.90
21712;DHT22;11017;53.552;9.910;2022-12-29T00:42:23;9.30;99.90
21712;DHT22;11017;53.552;9.910;2022-12-29T00:45:08;9.40;99.90
21712;DHT22;11017;53.552;9.910;2022-12-29T00:47:35;9.50;99.90
21712;DHT22;11017;53.552;9.910;2022-12-29T00:50:04;9.50;99.90
21712;DHT22;11017;53.552;9.910;2022-12-29T00:52:30;9.50;99.90
21712;DHT22;11017;53.552;9.910;2022-12-29T00:54:56;9.50;99.90
21712;DHT22;11017;53.552;9.910;2022-12-29T00:57:23;9.50;99.90
21712;DHT22;11017;53.552;9.910;2022-12-29T00:59:50;9.60;99.90
21712;DHT22;11017;53.552;9.910;2022-12-29T01:02:17;9.50;99.90
21712;DHT22;11017;53.552;9.910;2022-12-29T01:04:44;9.50;99.90
21712;DHT22;11017;53.552;9.910;2022-12-29T01:07:13;9.60;99.90
21712;DHT22;11017;53.552;9.910;2022-12-29T01:09:39;9.60;99.90
21712;DHT22;11017;53.552;9.910;2022-12-29T01:12:24;9.60;99.90
21712;DHT22;11017;53.552;9.910;2022-12-29T01:15:06;9.70;99.90
21712;DHT22;11017;53.552;9.910;2022-12-29T01:17:33;9.60;99.90
21712;DHT22;11017;53.552;9.910;2022-12-29T01:20:00;9.70;99.90
21712;DHT22;11017;53.552;9.910;2022-12-29T01:22:28;9.70;99.90
21712;DHT22;11017;53.552;9.910;2022-12-29T01:24:55;9.80;99.90
21712;DHT22;11017;53.552;9.910;2022-12-29T01:27:21;9.80;99.90
21712;DHT22;11017;53.552;9.910;2022-12-29T01:29:48;9.70;99.90
21712;DHT22;11017;53.552;9.910;2022-12-29T01:32:15;9.80;99.90
21712;DHT22;11017;53.552;9.910;2022-12-29T01:34:42;9.80;99.90
21712;DHT22;11017;53.552;9.910;2022-12-29T01:37:09;9.80;99.90
21712;DHT22;11017;53.552;9.910;2022-12-29T01:39:37;9.80;99.90
21712;DHT22;11017;53.552;9.910;2022-12-29T01:42:04;9.80;99.90
21712;DHT22;11017;53.552;9.910;2022-12-29T01:45:01;9.80;99.90
21712;DHT22;11017;53.552;9.910;2022-12-29T01:47:33;9.80;99.90
21712;DHT22;11017;53.552;9.910;2022-12-29T01:50:05;9.70;99.90
21712;DHT22;11017;53.552;9.910;2022-12-29T01:52:35;9.70;99.90
21712;DHT22;11017;53.552;9.910;2022-12-29T01:55:05;9.70;99.90
21712;DHT22;11017;53.552;9.910;2022-12-29T01:57:35;9.70;99.90
21712;DHT22;11017;53.552;9.910;2022-12-29T02:00:06;9.70;99.90
21712;DHT22;11017;53.552;9.910;2022-12-29T02:02:34;9.70;99.90
21712;DHT22;11017;53.552;9.910;2022-12-29T02:05:07;9.70;99.90
21712;DHT22;11017;53.552;9.910;2022-12-29T02:07:35;9.80;99.90
21712;DHT22;11017;53.552;9.910;2022-12-29T02:10:05;9.80;99.90
21712;DHT22;11017;53.552;9.910;2022-12-29T02:12:33;9.80;99.90
21712;DHT22;11017;53.552;9.910;2022-12-29T02:15:02;9.80;99.90
21712;DHT22;11017;53.552;9.910;2022-12-29T02:17:41;9.80;99.90
21712;DHT22;11017;53.552;9.910;2022-12-29T02:20:33;9.90;99.90
21712;DHT22;11017;53.552;9.910;2022-12-29T02:23:27;9.80;99.90
21712;DHT22;11017;53.552;9.910;2022-12-29T02:26:16;9.90;99.90
21712;DHT22;11017;53.552;9.910;2022-12-29T02:29:17;10.00;99.90
21712;DHT22;11017;53.552;9.910;2022-12-29T02:31:54;10.00;99.90
21712;DHT22;11017;53.552;9.910;2022-12-29T02:34:31;10.00;99.90
21712;DHT22;11017;53.552;9.910;2022-12-29T02:37:05;10.10;99.90
21712;DHT22;11017;53.552;9.910;2022-12-29T02:39:39;10.10;99.90
21712;DHT22;11017;53.552;9.910;2022-12-29T02:42:13;10.20;99.90
21712;DHT22;11017;53.552;9.910;2022-12-29T02:44:52;10.20;99.90
21712;DHT22;11017;53.552;9.910;2022-12-29T02:47:29;10.20;99.90
21712;DHT22;11017;53.552;9.910;2022-12-29T02:50:01;10.20;99.90
21712;DHT22;11017;53.552;9.910;2022-12-29T02:52:33;10.30;99.90
21712;DHT22;11017;53.552;9.910;2022-12-29T02:55:00;10.30;99.90
21712;DHT22;11017;53.552;9.910;2022-12-29T02:57:31;10.30;99.90
21712;DHT22;11017;53.552;9.910;2022-12-29T03:00:03;10.40;99.90
21712;DHT22;11017;53.552;9.910;2022-12-29T03:03:03;10.30;99.90
21712;DHT22;11017;53.552;9.910;2022-12-29T03:05:55;10.40;99.90
21712;DHT22;11017;53.552;9.910;2022-12-29T03:08:31;10.40;99.90
21712;DHT22;11017;53.552;9.910;2022-12-29T03:11:02;10.40;99.90
21712;DHT22;11017;53.552;9.910;2022-12-29T03:13:35;10.40;99.90
21712;DHT22;11017;53.552;9.910;2022-12-29T03:16:23;10.40;99.90
21712;DHT22;11017;53.552;9.910;2022-12-29T03:18:57;10.50;99.90
21712;DHT22;11017;53.552;9.910;2022-12-29T03:21:32;10.50;99.90
21712;DHT22;11017;53.552;9.910;2022-12-29T03:24:18;10.50;99.90
21712;DHT22;11017;53.552;9.910;2022-12-29T03:26:47;10.50;99.90
21712;DHT22;11017;53.552;9.910;2022-12-29T03:29:17;10.50;99.90
21712;DHT22;11017;53.552;9.910;2022-12-29T03:31:45;10.50;99.90
21712;DHT22;11017;53.552;9.910;2022-12-29T03:34:14;10.60;99.90
21712;DHT22;11017;53.552;9.910;2022-12-29T03:36:49;10.60;99.90
21712;DHT22;11017;53.552;9.910;2022-12-29T03:39:18;10.60;99.90
21712;DHT22;11017;53.552;9.910;2022-12-29T03:41:48;10.60;99.90
21712;DHT22;11017;53.552;9.910;2022-12-29T03:44:17;10.60;99.90
21712;DHT22;11017;53.552;9.910;2022-12-29T03:46:44;10.60;99.90
21712;DHT22;11017;53.552;9.910;2022-12-29T03:49:12;10.60;99.90
21712;DHT22;11017;53.552;9.910;2022-12-29T03:51:39;10.60;99.90
21712;DHT22;11017;53.552;9.910;2022-12-29T03:54:06;10.50;99.90
21712;DHT22;11017;53.552;9.910;2022-12-29T03:56:32;10.60;99.90
21712;DHT22;11017;53.552;9.910;2022-12-29T03:58:59;10.70;99.90
21712;DHT22;11017;53.552;9.910;2022-12-29T04:01:26;10.70;99.90
21712;DHT22;11017;53.552;9.910;2022-12-29T04:03:53;10.70;99.90
21712;DHT22;11017;53.552;9.910;2022-12-29T04:06:21;10.70;99.90
21712;DHT22;11017;53.552;9.910;2022-12-29T04:08:49;10.70;99.90
21712;DHT22;11017;53.552;9.910;2022-12-29T04:11:15;10.70;99.90
21712;DHT22;11017;53.552;9.910;2022-12-29T04:13:42;10.80;99.90
21712;DHT22;11017;53.552;9.910;2022-12-29T04:16:09;10.70;99.90
21712;DHT22;11017;53.552;9.910;2022-12-29T04:18:36;10.80;99.90
21712;DHT22;11017;53.552;9.910;2022-12-29T04:21:03;10.90;99.90
21712;DHT22;11017;53.552;9.910;2022-12-29T04:23:34;10.90;99.90
21712;DHT22;11017;53.552;9.910;2022-12-29T04:26:01;10.90;99.90
21712;DHT22;11017;53.552;9.910;2022-12-29T04:28:29;10.90;99.90
21712;DHT22;11017;53.552;9.910;2022-12-29T04:30:56;10.90;99.90
21712;DHT22;11017;53.552;9.910;2022-12-29T04:33:23;10.90;99.90
21712;DHT22;11017;53.552;9.910;2022-12-29T04:35:50;10.80;99.90
21712;DHT22;11017;53.552;9.910;2022-12-29T04:38:18;10.80;99.90
21712;DHT22;11017;53.552;9.910;2022-12-29T04:40:46;10.80;99.90
21712;DHT22;11017;53.552;9.910;2022-12-29T04:43:13;10.90;99.90
21712;DHT22;11017;53.552;9.910;2022-12-29T04:45:43;10.90;99.90
21712;DHT22;11017;53.552;9.910;2022-12-29T04:48:10;10.90;99.90
21712;DHT22;11017;53.552;9.910;2022-12-29T04:50:37;10.90;99.90
21712;DHT22;11017;53.552;9.910;2022-12-29T04:53:05;10.80;99.90
21712;DHT22;11017;53.552;9.910;2022-12-29T04:55:32;10.80;99.90
21712;DHT22;11017;53.552;9.910;2022-12-29T04:58:00;10.80;99.90
21712;DHT22;11017;53.552;9.910;2022-12-29T05:00:27;10.70;99.90
21712;DHT22;11017;53.552;9.910;2022-12-29T05:02:54;10.80;99.90
21712;DHT22;11017;53.552;9.910;2022-12-29T05:05:21;10.80;99.90
21712;DHT22;11017;53.552;9.910;2022-12-29T05:07:48;10.80;99.90
21712;DHT22;11017;53.552;9.910;2022-12-29T05:10:15;10.70;99.90
21712;DHT22;11017;53.552;9.910;2022-12-29T05:12:42;10.70;99.90
21712;DHT22;11017;53.552;9.910;2022-12-29T05:15:11;10.70;99.90
21712;DHT22;11017;53.552;9.910;2022-12-29T05:17:38;10.60;99.90
21712;DHT22;11017;53.552;9.910;2022-12-29T05:20:06;10.60;99.90
21712;DHT22;11017;53.552;9.910;2022-12-29T05:22:33;10.60;99.90
21712;DHT22;11017;53.552;9.910;2022-12-29T05:25:00;10.60;99.90
21712;DHT22;11017;53.552;9.910;2022-12-29T05:27:27;10.70;99.90
21712;DHT22;11017;53.552;9.910;2022-12-29T05:29:54;10.70;99.90
21712;DHT22;11017;53.552;9.910;2022-12-29T05:32:22;10.60;99.90
21712;DHT22;11017;53.552;9.910;2022-12-29T05:34:49;10.60;99.90
21712;DHT22;11017;53.552;9.910;2022-12-29T05:37:16;10.60;99.90
21712;DHT22;11017;53.552;9.910;2022-12-29T05:39:43;10.70;99.90
21712;DHT22;11017;53.552;9.910;2022-12-29T05:42:10;10.70;99.90
21712;DHT22;11017;53.552;9.910;2022-12-29T05:44:37;10.70;99.90
21712;DHT22;11017;53.552;9.910;2022-12-29T05:47:04;10.80;99.90
21712;DHT22;11017;53.552;9.910;2022-12-29T05:49:32;10.80;99.90
21712;DHT22;11017;53.552;9.910;2022-12-29T05:51:59;10.90;99.90
21712;DHT22;11017;53.552;9.910;2022-12-29T05:54:26;10.90;99.90
21712;DHT22;11017;53.552;9.910;2022-12-29T05:56:53;10.90;99.90
21712;DHT22;11017;53.552;9.910;2022-12-29T05:59:20;10.90;99.90
21712;DHT22;11017;53.552;9.910;2022-12-29T06:01:46;11.00;99.90
21712;DHT22;11017;53.552;9.910;2022-12-29T06:04:13;11.00;99.90
21712;DHT22;11017;53.552;9.910;2022-12-29T06:06:42;11.10;99.90
21712;DHT22;11017;53.552;9.910;2022-12-29T06:09:09;11.00;99.90
21712;DHT22;11017;53.552;9.910;2022-12-29T06:11:36;11.00;99.90
21712;DHT22;11017;53.552;9.910;2022-12-29T06:14:03;11.10;99.90
21712;DHT22;11017;53.552;9.910;2022-12-29T06:16:30;11.10;99.90
21712;DHT22;11017;53.552;9.910;2022-12-29T06:18:57;11.10;99.90
21712;DHT22;11017;53.552;9.910;2022-12-29T06:21:24;10.90;99.90
21712;DHT22;11017;53.552;9.910;2022-12-29T06:23:52;10.90;99.90
21712;DHT22;11017;53.552;9.910;2022-12-29T06:26:19;10.80;99.90
21712;DHT22;11017;53.552;9.910;2022-12-29T06:28:46;10.80;99.90
21712;DHT22;11017;53.552;9.910;2022-12-29T06:31:12;10.70;99.90
21712;DHT22;11017;53.552;9.910;2022-12-29T06:33:39;10.70;99.90
21712;DHT22;11017;53.552;9.910;2022-12-29T06:36:07;10.70;99.90
21712;DHT22;11017;53.552;9.910;2022-12-29T06:38:33;10.70;99.90
21712;DHT22;11017;53.552;9.910;2022-12-29T06:41:02;10.80;99.90
21712;DHT22;11017;53.552;9.910;2022-12-29T06:43:29;10.80;99.90
21712;DHT22;11017;53.552;9.910;2022-12-29T06:45:57;10.70;99.90
21712;DHT22;11017;53.552;9.910;2022-12-29T06:48:24;10.60;99.90
21712;DHT22;11017;53.552;9.910;2022-12-29T06:50:51;10.60;99.90
21712;DHT22;11017;53.552;9.910;2022-12-29T06:53:18;10.60;99.90
21712;DHT22;11017;53.552;9.910;2022-12-29T06:55:45;10.60;99.90
21712;DHT22;11017;53.552;9.910;2022-12-29T06:58:13;10.60;99.90
21712;DHT22;11017;53.552;9.910;2022-12-29T07:00:40;10.60;99.90
21712;DHT22;11017;53.552;9.910;2022-12-29T07:03:07;10.60;99.90
21712;DHT22;11017;53.552;9.910;2022-12-29T07:05:34;10.70;99.90
21712;DHT22;11017;53.552;9.910;2022-12-29T07:08:01;10.70;99.90
21712;DHT22;11017;53.552;9.910;2022-12-29T07:10:28;10.70;99.90
21712;DHT22;11017;53.552;9.910;2022-12-29T07:12:54;10.70;99.90
21712;DHT22;11017;53.552;9.910;2022-12-29T07:15:23;10.70;99.90
21712;DHT22;11017;53.552;9.910;2022-12-29T07:17:50;10.60;99.90
21712;DHT22;11017;53.552;9.910;2022-12-29T07:20:17;10.60;99.90
21712;DHT22;11017;53.552;9.910;2022-12-29T07:22:44;10.70;99.90
21712;DHT22;11017;53.552;9.910;2022-12-29T07:25:12;10.60;99.90
21712;DHT22;11017;53.552;9.910;2022-12-29T07:27:39;10.70;99.90
21712;DHT22;11017;53.552;9.910;2022-12-29T07:30:07;10.60;99.90
21712;DHT22;11017;53.552;9.910;2022-12-29T07:32:35;10.60;99.90
21712;DHT22;11017;53.552;9.910;2022-12-29T07:35:02;10.70;99.90
21712;DHT22;11017;53.552;9.910;2022-12-29T07:37:29;10.70;99.90
21712;DHT22;11017;53.552;9.910;2022-12-29T07:39:56;10.60;99.90
21712;DHT22;11017;53.552;9.910;2022-12-29T07:42:23;10.70;99.90
21712;DHT22;11017;53.552;9.910;2022-12-29T07:44:50;10.70;99.90
21712;DHT22;11017;53.552;9.910;2022-12-29T07:47:16;10.70;99.90
21712;DHT22;11017;53.552;9.910;2022-12-29T07:49:45;10.70;99.90
21712;DHT22;11017;53.552;9.910;2022-12-29T07:52:11;10.70;99.90
21712;DHT22;11017;53.552;9.910;2022-12-29T07:54:38;10.60;99.90
21712;DHT22;11017;53.552;9.910;2022-12-29T07:57:06;10.70;99.90
21712;DHT22;11017;53.552;9.910;2022-12-29T07:59:33;10.70;99.90
21712;DHT22;11017;53.552;9.910;2022-12-29T08:02:00;10.50;99.90
21712;DHT22;11017;53.552;9.910;2022-12-29T08:04:27;10.50;99.90
21712;DHT22;11017;53.552;9.910;2022-12-29T08:06:55;10.50;99.90
21712;DHT22;11017;53.552;9.910;2022-12-29T08:09:22;10.50;99.90
21712;DHT22;11017;53.552;9.910;2022-12-29T08:11:49;10.60;99.90
21712;DHT22;11017;53.552;9.910;2022-12-29T08:14:16;10.60;99.90
21712;DHT22;11017;53.552;9.910;2022-12-29T08:16:43;10.60;99.90
21712;DHT22;11017;53.552;9.910;2022-12-29T08:19:10;10.60;99.90
21712;DHT22;11017;53.552;9.910;2022-12-29T08:21:37;10.60;99.90
21712;DHT22;11017;53.552;9.910;2022-12-29T08:24:06;10.50;99.90
21712;DHT22;11017;53.552;9.910;2022-12-29T08:26:34;10.50;99.90
21712;DHT22;11017;53.552;9.910;2022-12-29T08:29:01;10.50;99.90
21712;DHT22;11017;53.552;9.910;2022-12-29T08:31:28;10.50;99.90
21712;DHT22;11017;53.552;9.910;2022-12-29T08:33:55;10.50;99.90
21712;DHT22;11017;53.552;9.910;2022-12-29T08:36:21;10.60;99.90
21712;DHT22;11017;53.552;9.910;2022-12-29T08:38:48;10.60;99.90
21712;DHT22;11017;53.552;9.910;2022-12-29T08:41:16;10.70;99.90
21712;DHT22;11017;53.552;9.910;2022-12-29T08:43:45;10.80;99.90
21712;DHT22;11017;53.552;9.910;2022-12-29T08:46:12;10.90;99.90
21712;DHT22;11017;53.552;9.910;2022-12-29T08:48:39;10.90;99.90
21712;DHT22;11017;53.552;9.910;2022-12-29T08:51:06;10.70;99.90
21712;DHT22;11017;53.552;9.910;2022-12-29T08:53:33;10.80;99.90
21712;DHT22;11017;53.552;9.910;2022-12-29T08:56:00;10.80;99.90
21712;DHT22;11017;53.552;9.910;2022-12-29T08:58:29;10.80;99.90
21712;DHT22;11017;53.552;9.910;2022-12-29T09:00:57;10.80;99.90
21712;DHT22;11017;53.552;9.910;2022-12-29T09:03:24;10.90;99.90
21712;DHT22;11017;53.552;9.910;2022-12-29T09:05:52;10.80;99.90
21712;DHT22;11017;53.552;9.910;2022-12-29T09:08:21;10.80;99.90
21712;DHT22;11017;53.552;9.910;2022-12-29T09:10:48;10.80;99.90
21712;DHT22;11017;53.552;9.910;2022-12-29T09:13:15;10.80;99.90
21712;DHT22;11017;53.552;9.910;2022-12-29T09:15:44;10.90;99.90
21712;DHT22;11017;53.552;9.910;2022-12-29T09:18:11;11.00;99.90
21712;DHT22;11017;53.552;9.910;2022-12-29T09:20:38;11.10;99.90
21712;DHT22;11017;53.552;9.910;2022-12-29T09:23:05;11.20;99.90
21712;DHT22;11017;53.552;9.910;2022-12-29T09:25:33;11.20;99.90
21712;DHT22;11017;53.552;9.910;2022-12-29T09:28:00;11.30;99.90
21712;DHT22;11017;53.552;9.910;2022-12-29T09:30:30;11.20;99.90
21712;DHT22;11017;53.552;9.910;2022-12-29T09:32:58;11.10;99.90
21712;DHT22;11017;53.552;9.910;2022-12-29T09:35:25;11.10;99.90
21712;DHT22;11017;53.552;9.910;2022-12-29T09:37:51;11.10;99.90
21712;DHT22;11017;53.552;9.910;2022-12-29T09:40:25;11.20;99.90
21712;DHT22;11017;53.552;9.910;2022-12-29T09:43:11;11.10;99.90
21712;DHT22;11017;53.552;9.910;2022-12-29T09:45:44;11.10;99.90
21712;DHT22;11017;53.552;9.910;2022-12-29T09:48:18;11.10;99.90
21712;DHT22;11017;53.552;9.910;2022-12-29T09:50:49;11.10;99.90
21712;DHT22;11017;53.552;9.910;2022-12-29T09:53:20;11.20;99.90
21712;DHT22;11017;53.552;9.910;2022-12-29T09:55:49;11.10;99.90
21712;DHT22;11017;53.552;9.910;2022-12-29T09:58:21;11.10;99.90
21712;DHT22;11017;53.552;9.910;2022-12-29T10:00:54;11.10;99.90
21712;DHT22;11017;53.552;9.910;2022-12-29T10:03:26;11.20;99.90
21712;DHT22;11017;53.552;9.910;2022-12-29T10:06:08;11.30;99.90
21712;DHT22;11017;53.552;9.910;2022-12-29T10:08:40;11.30;99.90
21712;DHT22;11017;53.552;9.910;2022-12-29T10:11:18;11.30;99.90
21712;DHT22;11017;53.552;9.910;2022-12-29T10:14:10;11.20;99.90
21712;DHT22;11017;53.552;9.910;2022-12-29T10:16:47;11.30;99.90
21712;DHT22;11017;53.552;9.910;2022-12-29T10:19:28;11.40;99.90
21712;DHT22;11017;53.552;9.910;2022-12-29T10:22:08;11.40;99.90
21712;DHT22;11017;53.552;9.910;2022-12-29T10:24:38;11.50;99.90
21712;DHT22;11017;53.552;9.910;2022-12-29T10:27:10;11.80;99.90
21712;DHT22;11017;53.552;9.910;2022-12-29T10:29:42;11.80;99.90
21712;DHT22;11017;53.552;9.910;2022-12-29T10:32:21;11.60;99.90
21712;DHT22;11017;53.552;9.910;2022-12-29T10:34:53;11.60;99.90
21712;DHT22;11017;53.552;9.910;2022-12-29T10:37:29;11.60;99.90
21712;DHT22;11017;53.552;9.910;2022-12-29T10:39:58;11.70;99.90
21712;DHT22;11017;53.552;9.910;2022-12-29T10:42:27;11.80;99.90
21712;DHT22;11017;53.552;9.910;2022-12-29T10:44:54;11.80;99.90
21712;DHT22;11017;53.552;9.910;2022-12-29T10:47:25;11.80;99.90
21712;DHT22;11017;53.552;9.910;2022-12-29T10:49:54;12.00;99.90
21712;DHT22;11017;53.552;9.910;2022-12-29T10:52:24;12.00;99.90
21712;DHT22;11017;53.552;9.910;2022-12-29T10:54:55;12.10;99.90
21712;DHT22;11017;53.552;9.910;2022-12-29T10:57:27;12.00;99.90
21712;DHT22;11017;53.552;9.910;2022-12-29T10:59:55;12.10;99.90
21712;DHT22;11017;53.552;9.910;2022-12-29T11:02:47;12.30;99.90
21712;DHT22;11017;53.552;9.910;2022-12-29T11:05:23;12.30;99.90
21712;DHT22;11017;53.552;9.910;2022-12-29T11:07:54;12.10;99.90
21712;DHT22;11017;53.552;9.910;2022-12-29T11:10:30;12.00;99.90
21712;DHT22;11017;53.552;9.910;2022-12-29T11:13:04;12.00;99.90
21712;DHT22;11017;53.552;9.910;2022-12-29T11:15:41;12.10;99.90
21712;DHT22;11017;53.552;9.910;2022-12-29T11:18:18;12.20;99.90
21712;DHT22;11017;53.552;9.910;2022-12-29T11:20:48;12.20;99.90
21712;DHT22;11017;53.552;9.910;2022-12-29T11:23:25;12.00;99.90
21712;DHT22;11017;53.552;9.910;2022-12-29T11:26:23;12.00;99.90
21712;DHT22;11017;53.552;9.910;2022-12-29T11:29:14;11.80;99.90
21712;DHT22;11017;53.552;9.910;2022-12-29T11:31:45;11.80;99.90
21712;DHT22;11017;53.552;9.910;2022-12-29T11:34:17;11.70;99.90
21712;DHT22;11017;53.552;9.910;2022-12-29T11:36:46;11.80;99.90
21712;DHT22;11017;53.552;9.910;2022-12-29T11:39:34;11.90;99.90
21712;DHT22;11017;53.552;9.910;2022-12-29T11:42:04;11.80;99.90
21712;DHT22;11017;53.552;9.910;2022-12-29T11:44:37;11.90;99.90
21712;DHT22;11017;53.552;9.910;2022-12-29T11:47:21;11.80;99.90
21712;DHT22;11017;53.552;9.910;2022-12-29T11:49:53;11.60;99.90
21712;DHT22;11017;53.552;9.910;2022-12-29T11:52:25;11.60;99.90
21712;DHT22;11017;53.552;9.910;2022-12-29T11:54:53;11.70;99.90
21712;DHT22;11017;53.552;9.910;2022-12-29T11:57:22;11.80;99.90
21712;DHT22;11017;53.552;9.910;2022-12-29T11:59:50;11.80;99.90
21712;DHT22;11017;53.552;9.910;2022-12-29T12:02:40;11.90;99.90
21712;DHT22;11017;53.552;9.910;2022-12-29T12:05:17;11.80;99.90
21712;DHT22;11017;53.552;9.910;2022-12-29T12:07:50;11.70;99.90
21712;DHT22;11017;53.552;9.910;2022-12-29T12:10:23;11.50;99.90
21712;DHT22;11017;53.552;9.910;2022-12-29T12:12:58;11.50;99.90
21712;DHT22;11017;53.552;9.910;2022-12-29T12:15:31;11.40;99.90
21712;DHT22;11017;53.552;9.910;2022-12-29T12:18:07;11.30;99.90
21712;DHT22;11017;53.552;9.910;2022-12-29T12:20:47;11.30;99.90
21712;DHT22;11017;53.552;9.910;2022-12-29T12:23:27;11.40;99.90
21712;DHT22;11017;53.552;9.910;2022-12-29T12:25:59;11.40;99.90
21712;DHT22;11017;53.552;9.910;2022-12-29T12:28:36;11.30;99.90
21712;DHT22;11017;53.552;9.910;2022-12-29T12:31:12;11.40;99.90
21712;DHT22;11017;53.552;9.910;2022-12-29T12:33:46;11.40;99.90
21712;DHT22;11017;53.552;9.910;2022-12-29T12:36:26;11.30;99.90
21712;DHT22;11017;53.552;9.910;2022-12-29T12:39:02;11.20;99.90
21712;DHT22;11017;53.552;9.910;2022-12-29T12:41:42;11.10;99.90
21712;DHT22;11017;53.552;9.910;2022-12-29T12:44:18;11.10;99.90
21712;DHT22;11017;53.552;9.910;2022-12-29T12:47:19;11.20;99.90
21712;DHT22;11017;53.552;9.910;2022-12-29T12:50:14;11.20;99.90
21712;DHT22;11017;53.552;9.910;2022-12-29T12:52:59;11.20;99.90
21712;DHT22;11017;53.552;9.910;2022-12-29T12:55:41;11.10;99.90
21712;DHT22;11017;53.552;9.910;2022-12-29T12:58:17;11.20;99.90
21712;DHT22;11017;53.552;9.910;2022-12-29T13:00:56;11.10;99.90
21712;DHT22;11017;53.552;9.910;2022-12-29T13:03:34;11.10;99.90
21712;DHT22;11017;53.552;9.910;2022-12-29T13:06:15;11.20;99.90
21712;DHT22;11017;53.552;9.910;2022-12-29T13:09:08;11.30;99.90
21712;DHT22;11017;53.552;9.910;2022-12-29T13:11:49;11.40;99.90
21712;DHT22;11017;53.552;9.910;2022-12-29T13:14:27;11.30;99.90
21712;DHT22;11017;53.552;9.910;2022-12-29T13:17:00;11.30;99.90
21712;DHT22;11017;53.552;9.910;2022-12-29T13:19:36;11.30;99.90
21712;DHT22;11017;53.552;9.910;2022-12-29T13:22:08;11.10;99.90
21712;DHT22;11017;53.552;9.910;2022-12-29T13:24:47;10.80;99.90
21712;DHT22;11017;53.552;9.910;2022-12-29T13:27:23;10.60;99.90
21712;DHT22;11017;53.552;9.910;2022-12-29T13:30:00;10.60;99.90
21712;DHT22;11017;53.552;9.910;2022-12-29T13:32:49;10.50;99.90
21712;DHT22;11017;53.552;9.910;2022-12-29T13:35:32;10.50;99.90
21712;DHT22;11017;53.552;9.910;2022-12-29T13:38:04;10.50;99.90
21712;DHT22;11017;53.552;9.910;2022-12-29T13:40:40;10.30;99.90
21712;DHT22;11017;53.552;9.910;2022-12-29T13:43:09;10.30;99.90
21712;DHT22;11017;53.552;9.910;2022-12-29T13:45:37;10.40;99.90
21712;DHT22;11017;53.552;9.910;2022-12-29T13:48:09;10.30;99.90
21712;DHT22;11017;53.552;9.910;2022-12-29T13:50:39;10.30;99.90
21712;DHT22;11017;53.552;9.910;2022-12-29T13:53:15;10.30;99.90
21712;DHT22;11017;53.552;9.910;2022-12-29T13:55:49;10.30;99.90
21712;DHT22;11017;53.552;9.910;2022-12-29T13:58:26;10.30;99.90
21712;DHT22;11017;53.552;9.910;2022-12-29T14:00:58;10.50;99.90
21712;DHT22;11017;53.552;9.910;2022-12-29T14:03:43;10.50;99.90
21712;DHT22;11017;53.552;9.910;2022-12-29T14:06:18;10.50;99.90
21712;DHT22;11017;53.552;9.910;2022-12-29T14:08:46;10.40;99.90
21712;DHT22;11017;53.552;9.910;2022-12-29T14:11:15;9.80;99.90
21712;DHT22;11017;53.552;9.910;2022-12-29T14:13:46;9.40;99.90
21712;DHT22;11017;53.552;9.910;2022-12-29T14:16:29;8.80;99.90
21712;DHT22;11017;53.552;9.910;2022-12-29T14:19:04;8.70;99.90
21712;DHT22;11017;53.552;9.910;2022-12-29T14:21:32;8.60;99.90
21712;DHT22;11017;53.552;9.910;2022-12-29T14:24:41;8.60;99.90
21712;DHT22;11017;53.552;9.910;2022-12-29T14:30:50;8.60;99.90
21712;DHT22;11017;53.552;9.910;2022-12-29T14:33:18;8.60;99.90
21712;DHT22;11017;53.552;9.910;2022-12-29T14:35:48;8.60;99.90
21712;DHT22;11017;53.552;9.910;2022-12-29T14:38:30;8.70;99.90
21712;DHT22;11017;53.552;9.910;2022-12-29T14:41:18;8.60;99.90
21712;DHT22;11017;53.552;9.910;2022-12-29T14:43:56;8.60;99.90
21712;DHT22;11017;53.552;9.910;2022-12-29T14:46:25;8.60;99.90
21712;DHT22;11017;53.552;9.910;2022-12-29T14:49:15;8.70;99.90
21712;DHT22;11017;53.552;9.910;2022-12-29T14:51:43;8.80;99.90
21712;DHT22;11017;53.552;9.910;2022-12-29T14:54:45;8.80;99.90
21712;DHT22;11017;53.552;9.910;2022-12-29T14:57:21;8.80;99.90
21712;DHT22;11017;53.552;9.910;2022-12-29T14:59:50;8.70;99.90
21712;DHT22;11017;53.552;9.910;2022-12-29T15:02:23;8.80;99.90
21712;DHT22;11017;53.552;9.910;2022-12-29T15:04:52;8.80;99.90
21712;DHT22;11017;53.552;9.910;2022-12-29T15:07:20;8.70;99.90
21712;DHT22;11017;53.552;9.910;2022-12-29T15:09:52;8.70;99.90
21712;DHT22;11017;53.552;9.910;2022-12-29T15:12:30;8.60;99.90
21712;DHT22;11017;53.552;9.910;2022-12-29T15:15:00;8.70;99.90
21712;DHT22;11017;53.552;9.910;2022-12-29T15:17:30;8.70;99.90
21712;DHT22;11017;53.552;9.910;2022-12-29T15:19:59;8.70;99.90
21712;DHT22;11017;53.552;9.910;2022-12-29T15:22:27;8.60;99.90
21712;DHT22;11017;53.552;9.910;2022-12-29T15:24:55;8.60;99.90
21712;DHT22;11017;53.552;9.910;2022-12-29T15:27:25;8.60;99.90
21712;DHT22;11017;53.552;9.910;2022-12-29T15:29:58;8.60;99.90
21712;DHT22;11017;53.552;9.910;2022-12-29T15:32:39;8.50;99.90
21712;DHT22;11017;53.552;9.910;2022-12-29T15:35:23;8.50;99.90
21712;DHT22;11017;53.552;9.910;2022-12-29T15:37:50;8.50;99.90
21712;DHT22;11017;53.552;9.910;2022-12-29T15:40:23;8.50;99.90
21712;DHT22;11017;53.552;9.910;2022-12-29T15:43:06;8.50;99.90
21712;DHT22;11017;53.552;9.910;2022-12-29T15:45:37;8.50;99.90
21712;DHT22;11017;53.552;9.910;2022-12-29T15:48:13;8.60;99.90
21712;DHT22;11017;53.552;9.910;2022-12-29T15:50:41;8.70;99.90
21712;DHT22;11017;53.552;9.910;2022-12-29T15:53:11;8.70;99.90
21712;DHT22;11017;53.552;9.910;2022-12-29T15:55:40;8.70;99.90
21712;DHT22;11017;53.552;9.910;2022-12-29T15:58:19;8.60;99.90
21712;DHT22;11017;53.552;9.910;2022-12-29T16:00:48;8.60;99.90
21712;DHT22;11017;53.552;9.910;2022-12-29T16:03:16;8.50;99.90
21712;DHT22;11017;53.552;9.910;2022-12-29T16:05:50;8.40;99.90
21712;DHT22;11017;53.552;9.910;2022-12-29T16:08:29;8.40;99.90